createdAt,value
2018-05-18T00:02:03.523Z,100591
2018-05-18T00:07:04.995Z,100591
2018-05-18T00:12:06.456Z,100592
2018-05-18T00:17:07.944Z,100601
2018-05-18T00:22:09.465Z,100600
2018-05-18T00:27:10.972Z,100593
2018-05-18T00:32:19.442Z,100605
2018-05-18T00:37:20.928Z,100601
2018-05-18T00:42:22.361Z,100594
2018-05-18T00:47:23.861Z,100601
2018-05-18T00:52:26.115Z,100596
2018-05-18T00:57:27.580Z,100602
2018-05-18T01:02:29.081Z,100604
2018-05-18T01:07:30.613Z,100605
2018-05-18T01:12:32.114Z,100611
2018-05-18T01:17:33.558Z,100608
2018-05-18T01:22:35.099Z,100611
2018-05-18T01:27:36.623Z,100617
2018-05-18T01:32:38.922Z,100612
2018-05-18T01:37:41.185Z,100613
2018-05-18T01:42:42.694Z,100615
2018-05-18T01:47:44.289Z,100609
2018-05-18T01:52:45.815Z,100617
2018-05-18T01:57:47.369Z,100620
2018-05-18T02:02:49.688Z,100626
2018-05-18T02:07:51.169Z,100623
2018-05-18T02:12:52.714Z,100629
2018-05-18T02:17:54.207Z,100630
2018-05-18T02:22:56.393Z,100631
2018-05-18T02:27:57.851Z,100629
2018-05-18T02:32:59.392Z,100628
2018-05-18T02:38:00.866Z,100638
2018-05-18T02:43:02.329Z,100641
2018-05-18T02:48:03.976Z,100640
2018-05-18T02:53:06.255Z,100630
2018-05-18T02:58:08.504Z,100634
2018-05-18T03:03:10.076Z,100629
2018-05-18T03:08:11.516Z,100640
2018-05-18T03:13:13.037Z,100624
2018-05-18T03:18:15.292Z,100636
2018-05-18T03:23:16.804Z,100624
2018-05-18T03:28:19.050Z,100630
2018-05-18T03:33:20.572Z,100630
2018-05-18T03:38:22.136Z,100629
2018-05-18T03:43:23.689Z,100628
2018-05-18T03:48:25.981Z,100632
2018-05-18T03:53:27.501Z,100639
2018-05-18T03:58:29.016Z,100645
2018-05-18T04:03:49.759Z,100650
2018-05-18T04:08:53.292Z,100646
2018-05-18T04:13:54.773Z,100646
2018-05-18T04:18:56.568Z,100650
2018-05-18T04:23:58.887Z,100660
2018-05-18T04:29:07.535Z,100665
2018-05-18T04:34:09.111Z,100666
2018-05-18T04:39:10.620Z,100668
2018-05-18T04:44:12.143Z,100666
2018-05-18T04:49:13.688Z,100658
2018-05-18T04:54:15.178Z,100657
2018-05-18T04:59:16.719Z,100663
2018-05-18T05:04:18.252Z,100667
2018-05-18T05:09:20.044Z,100669
2018-05-18T05:14:22.280Z,100680
2018-05-18T05:19:23.828Z,100684
2018-05-18T05:24:25.373Z,100680
2018-05-18T05:29:26.828Z,100688
2018-05-18T05:34:29.103Z,100687
2018-05-18T05:39:30.703Z,100699
2018-05-18T05:44:32.166Z,100700
2018-05-18T05:49:33.702Z,100699
2018-05-18T05:54:35.154Z,100697
2018-05-18T05:59:36.701Z,100705
2018-05-18T06:04:38.270Z,100701
2018-05-18T06:09:40.015Z,100697
2018-05-18T06:14:41.511Z,100713
2018-05-18T06:19:43.041Z,100718
2018-05-18T06:24:45.247Z,100727
2018-05-18T06:29:46.877Z,100730
2018-05-18T06:34:49.202Z,100737
2018-05-18T06:39:50.651Z,100738
2018-05-18T06:44:52.388Z,100738
2018-05-18T06:49:53.925Z,100746
2018-05-18T06:54:55.460Z,100758
2018-05-18T06:59:56.985Z,100760
2018-05-18T07:04:58.517Z,100754
2018-05-18T07:10:00.119Z,100757
2018-05-18T07:15:01.671Z,100759
2018-05-18T07:20:03.198Z,100748
2018-05-18T07:25:04.730Z,100749
2018-05-18T07:30:06.293Z,100749
2018-05-18T07:35:07.763Z,100752
2018-05-18T07:40:09.328Z,100765
2018-05-18T07:45:10.853Z,100770
2018-05-18T07:50:12.445Z,100755
2018-05-18T07:55:14.581Z,100757
2018-05-18T08:00:17.062Z,100749
2018-05-18T08:05:19.315Z,100749
2018-05-18T08:10:20.854Z,100744
2018-05-18T08:15:22.411Z,100758
2018-05-18T08:20:23.920Z,100759
2018-05-18T08:25:25.472Z,100765
2018-05-18T08:30:27.036Z,100760
2018-05-18T08:35:28.564Z,100762
2018-05-18T08:40:30.102Z,100761
2018-05-18T08:45:31.665Z,100769
2018-05-18T08:50:33.195Z,100768
2018-05-18T08:55:34.759Z,100772
2018-05-18T09:00:36.335Z,100775
2018-05-18T09:05:38.639Z,100770
2018-05-18T09:10:40.172Z,100775
2018-05-18T09:15:41.723Z,100769
2018-05-18T09:20:43.262Z,100774
2018-05-18T09:25:44.791Z,100777
2018-05-18T09:30:46.332Z,100776
2018-05-18T09:35:47.863Z,100773
2018-05-18T09:40:49.372Z,100780
2018-05-18T09:45:50.910Z,100772
2018-05-18T09:50:52.436Z,100779
2018-05-18T09:55:53.972Z,100772
2018-05-18T10:00:55.474Z,100772
2018-05-18T10:05:57.063Z,100759
2018-05-18T10:10:58.587Z,100760
2018-05-18T10:16:00.112Z,100768
2018-05-18T10:21:02.361Z,100772
2018-05-18T10:26:03.965Z,100766
2018-05-18T10:31:05.456Z,100763
2018-05-18T10:36:07.011Z,100760
2018-05-18T10:41:09.372Z,100761
2018-05-18T10:46:10.876Z,100765
2018-05-18T10:51:13.144Z,100757
2018-05-18T10:56:15.379Z,100755
2018-05-18T11:01:17.008Z,100752
2018-05-18T11:06:19.325Z,100744
2018-05-18T11:11:20.844Z,100744
2018-05-18T11:16:22.486Z,100734
2018-05-18T11:21:24.044Z,100727
2018-05-18T11:26:25.610Z,100730
2018-05-18T11:31:27.826Z,100725
2018-05-18T11:36:29.386Z,100723
2018-05-18T11:41:30.884Z,100725
2018-05-18T11:46:33.143Z,100728
2018-05-18T11:51:34.710Z,100724
2018-05-18T11:56:36.248Z,100721
2018-05-18T12:01:37.699Z,100726
2018-05-18T12:06:39.284Z,100721
2018-05-18T12:11:40.843Z,100735
2018-05-18T12:16:42.390Z,100719
2018-05-18T12:21:43.932Z,100719
2018-05-18T12:26:46.208Z,100715
2018-05-18T12:31:47.730Z,100723
2018-05-18T12:36:49.275Z,100725
2018-05-18T12:41:51.525Z,100724
2018-05-18T12:46:53.009Z,100728
2018-05-18T12:51:55.381Z,100712
2018-05-18T12:56:56.905Z,100706
2018-05-18T13:01:58.490Z,100700
2018-05-18T13:07:00.068Z,100699
2018-05-18T13:12:01.649Z,100691
2018-05-18T13:17:03.209Z,100701
2018-05-18T13:22:04.925Z,100698
2018-05-18T13:27:07.212Z,100688
2018-05-18T13:32:08.741Z,100691
2018-05-18T13:37:10.277Z,100685
2018-05-18T13:42:11.849Z,100679
2018-05-18T13:47:13.392Z,100682
2018-05-18T13:52:14.943Z,100682
2018-05-18T13:57:17.297Z,100674
2018-05-18T14:02:18.679Z,100681
2018-05-18T14:07:20.179Z,100678
2018-05-18T14:12:21.642Z,100678
2018-05-18T14:17:23.169Z,100659
2018-05-18T14:22:24.733Z,100677
2018-05-18T14:27:26.299Z,100674
2018-05-18T14:32:27.980Z,100668
2018-05-18T14:37:29.479Z,100662
2018-05-18T14:42:30.989Z,100664
2018-05-18T14:47:32.545Z,100659
2018-05-18T14:52:34.075Z,100656
2018-05-18T14:57:36.324Z,100656
2018-05-18T15:02:37.835Z,100660
2018-05-18T15:07:39.278Z,100652
2018-05-18T15:12:40.724Z,100644
2018-05-18T15:17:42.186Z,100647
2018-05-18T15:22:43.615Z,100641
2018-05-18T15:27:45.100Z,100639
2018-05-18T15:32:46.577Z,100649
2018-05-18T15:37:48.089Z,100655
2018-05-18T15:42:50.422Z,100646
2018-05-18T15:47:51.935Z,100649
2018-05-18T15:52:54.327Z,100645
2018-05-18T15:57:56.604Z,100641
2018-05-18T16:02:58.908Z,100638
2018-05-18T16:08:00.450Z,100645
2018-05-18T16:13:02.087Z,100639
2018-05-18T16:18:10.653Z,100645
2018-05-18T16:23:12.183Z,100651
2018-05-18T16:28:13.757Z,100645
2018-05-18T16:33:15.286Z,100642
2018-05-18T16:38:16.872Z,100634
2018-05-18T16:43:18.427Z,100635
2018-05-18T16:48:19.966Z,100636
2018-05-18T16:53:22.517Z,100638
2018-05-18T16:58:24.043Z,100635
2018-05-18T17:03:25.588Z,100634
2018-05-18T17:08:27.160Z,100634
2018-05-18T17:13:29.430Z,100624
2018-05-18T17:18:30.984Z,100642
2018-05-18T17:23:32.618Z,100635
2018-05-18T17:28:34.144Z,100626
2018-05-18T17:33:35.699Z,100636
2018-05-18T17:38:37.293Z,100628
2018-05-18T17:43:46.501Z,100643
2018-05-18T17:48:48.021Z,100634
2018-05-18T17:53:49.573Z,100634
2018-05-18T17:58:51.904Z,100632
2018-05-18T18:03:53.459Z,100626
2018-05-18T18:08:55.020Z,100631
2018-05-18T18:13:56.603Z,100632
2018-05-18T18:18:58.099Z,100634
2018-05-18T18:23:59.671Z,100624
2018-05-18T18:29:02.026Z,100632
2018-05-18T18:34:03.806Z,100629
2018-05-18T18:39:05.337Z,100628
2018-05-18T18:44:07.610Z,100637
2018-05-18T18:49:09.896Z,100636
2018-05-18T18:54:12.272Z,100636
2018-05-18T18:59:13.791Z,100643
2018-05-18T19:04:15.373Z,100647
2018-05-18T19:09:17.167Z,100648
2018-05-18T19:14:18.764Z,100655
2018-05-18T19:19:20.320Z,100653
2018-05-18T19:24:21.926Z,100645
2018-05-18T19:29:23.399Z,100649
2018-05-18T19:34:24.927Z,100653
2018-05-18T19:39:26.524Z,100654
2018-05-18T19:44:28.287Z,100661
2018-05-18T19:49:29.766Z,100663
2018-05-18T19:54:31.362Z,100666
2018-05-18T19:59:32.949Z,100666
2018-05-18T20:04:34.494Z,100668
2018-05-18T20:09:36.420Z,100663
2018-05-18T20:14:38.017Z,100661
2018-05-18T20:19:39.804Z,100660
2018-05-18T20:24:41.387Z,100661
2018-05-18T20:29:43.351Z,100665
2018-05-18T20:34:45.278Z,100665
2018-05-18T20:39:46.865Z,100668
2018-05-18T20:44:48.560Z,100663
2018-05-18T20:49:50.340Z,100670
2018-05-18T20:54:52.000Z,100666
2018-05-18T20:59:54.077Z,100672
2018-05-18T21:04:55.764Z,100675
2018-05-18T21:09:57.508Z,100676
2018-05-18T21:14:59.261Z,100680
2018-05-18T21:20:01.671Z,100671
2018-05-18T21:25:04.218Z,100679
2018-05-18T21:30:05.843Z,100692
2018-05-18T21:35:08.277Z,100675
2018-05-18T21:40:09.932Z,100686
2018-05-18T21:45:11.521Z,100698
2018-05-18T21:50:13.167Z,100700
2018-05-18T21:55:15.035Z,100700
2018-05-18T22:00:16.769Z,100699
2018-05-18T22:05:19.032Z,100705
2018-05-18T22:10:20.679Z,100710
2018-05-18T22:15:22.172Z,100707
2018-05-18T22:20:23.693Z,100712
2018-05-18T22:25:25.211Z,100713
2018-05-18T22:30:26.701Z,100712
2018-05-18T22:35:29.084Z,100712
2018-05-18T22:40:31.391Z,100700
2018-05-18T22:45:33.161Z,100695
2018-05-18T22:50:34.648Z,100700
2018-05-18T22:55:36.185Z,100703
2018-05-18T23:00:38.598Z,100699
2018-05-18T23:05:40.127Z,100694
2018-05-18T23:10:42.510Z,100693
2018-05-18T23:15:45.131Z,100697
2018-05-18T23:20:46.741Z,100705
2018-05-18T23:25:52.504Z,100704
2018-05-18T23:30:54.065Z,100699
2018-05-18T23:35:56.627Z,100693
2018-05-18T23:40:58.445Z,100683
2018-05-18T23:45:59.962Z,100683
2018-05-18T23:51:01.484Z,100691
2018-05-18T23:56:03.062Z,100686
